createdAt,value
2018-06-10T00:01:58.529Z,28.97
2018-06-10T00:04:27.048Z,28.30
2018-06-10T00:06:55.546Z,30.30
2018-06-10T00:09:24.072Z,31.00
2018-06-10T00:11:52.631Z,26.17
2018-06-10T00:14:21.355Z,26.50
2018-06-10T00:16:49.863Z,23.33
2018-06-10T00:19:18.031Z,27.17
2018-06-10T00:21:46.628Z,25.73
2018-06-10T00:24:15.156Z,27.13
2018-06-10T00:26:43.679Z,25.60
2018-06-10T00:29:17.315Z,27.37
2018-06-10T00:31:45.827Z,25.67
2018-06-10T00:34:14.387Z,28.43
2018-06-10T00:36:42.847Z,24.43
2018-06-10T00:39:11.347Z,26.33
2018-06-10T00:41:40.032Z,24.27
2018-06-10T00:44:08.731Z,27.03
2018-06-10T00:46:37.317Z,25.70
2018-06-10T00:49:05.865Z,22.20
2018-06-10T00:51:34.437Z,24.53
2018-06-10T00:54:03.056Z,25.03
2018-06-10T00:56:42.893Z,24.97
2018-06-10T00:59:11.483Z,23.37
2018-06-10T01:01:40.044Z,26.57
2018-06-10T01:04:08.538Z,24.40
2018-06-10T01:06:37.148Z,22.77
2018-06-10T01:09:08.756Z,22.93
2018-06-10T01:11:38.287Z,23.43
2018-06-10T01:14:07.372Z,20.30
2018-06-10T01:16:36.145Z,21.10
2018-06-10T01:19:04.763Z,19.63
2018-06-10T01:21:33.296Z,19.17
2018-06-10T01:24:01.820Z,20.70
2018-06-10T01:26:35.597Z,22.63
2018-06-10T01:29:04.179Z,27.20
2018-06-10T01:31:32.688Z,28.47
2018-06-10T01:34:01.231Z,30.00
2018-06-10T01:36:29.781Z,28.03
2018-06-10T01:38:58.321Z,27.93
2018-06-10T01:41:27.954Z,27.57
2018-06-10T01:43:56.448Z,25.53
2018-06-10T01:46:24.984Z,23.10
2018-06-10T01:48:53.498Z,22.27
2018-06-10T01:51:22.136Z,20.70
2018-06-10T01:53:50.866Z,21.83
2018-06-10T01:56:19.415Z,24.57
2018-06-10T01:58:47.916Z,24.17
2018-06-10T02:01:16.465Z,25.10
2018-06-10T02:03:44.947Z,22.80
2018-06-10T02:06:13.457Z,21.90
2018-06-10T02:08:41.960Z,21.43
2018-06-10T02:11:10.486Z,22.17
2018-06-10T02:13:38.982Z,19.00
2018-06-10T02:16:07.539Z,26.47
2018-06-10T02:18:36.068Z,23.17
2018-06-10T02:21:04.724Z,20.03
2018-06-10T02:23:33.251Z,23.33
2018-06-10T02:26:01.919Z,25.60
2018-06-10T02:28:30.086Z,22.53
2018-06-10T02:30:58.626Z,25.73
2018-06-10T02:33:27.111Z,26.27
2018-06-10T02:35:55.748Z,29.50
2018-06-10T02:38:24.631Z,25.17
2018-06-10T02:40:53.098Z,29.13
2018-06-10T02:43:21.776Z,21.07
2018-06-10T02:45:50.280Z,19.00
2018-06-10T02:48:18.791Z,24.60
2018-06-10T02:50:47.404Z,20.10
2018-06-10T02:53:15.939Z,19.87
2018-06-10T02:55:44.455Z,17.03
2018-06-10T02:58:12.970Z,20.03
2018-06-10T03:00:41.524Z,15.93
2018-06-10T03:03:10.052Z,17.80
2018-06-10T03:05:38.560Z,18.60
2018-06-10T03:08:07.301Z,16.63
2018-06-10T03:10:35.809Z,17.00
2018-06-10T03:13:04.535Z,17.73
2018-06-10T03:15:33.069Z,18.03
2018-06-10T03:18:01.583Z,17.97
2018-06-10T03:20:30.223Z,20.13
2018-06-10T03:22:58.769Z,19.37
2018-06-10T03:25:27.373Z,20.27
2018-06-10T03:27:55.924Z,19.90
2018-06-10T03:30:24.436Z,32.77
2018-06-10T03:32:53.073Z,42.10
2018-06-10T03:35:21.763Z,47.13
2018-06-10T03:37:50.251Z,42.37
2018-06-10T03:40:18.791Z,41.37
2018-06-10T03:42:47.268Z,37.20
2018-06-10T03:45:15.850Z,22.50
2018-06-10T03:47:44.364Z,18.90
2018-06-10T03:50:12.881Z,20.17
2018-06-10T03:52:41.412Z,19.57
2018-06-10T03:55:09.965Z,22.70
2018-06-10T03:57:38.467Z,21.17
2018-06-10T04:00:07.048Z,20.90
2018-06-10T04:02:35.543Z,19.47
2018-06-10T04:05:04.635Z,17.80
2018-06-10T04:07:33.336Z,20.93
2018-06-10T04:10:02.011Z,18.60
2018-06-10T04:12:30.956Z,20.20
2018-06-10T04:14:59.560Z,18.13
2018-06-10T04:17:28.171Z,16.23
2018-06-10T04:19:56.655Z,16.13
2018-06-10T04:22:25.252Z,16.53
2018-06-10T04:24:53.761Z,18.27
2018-06-10T04:27:22.343Z,16.90
2018-06-10T04:29:50.561Z,15.77
2018-06-10T04:32:19.070Z,17.70
2018-06-10T04:34:47.613Z,17.33
2018-06-10T04:37:16.144Z,15.97
2018-06-10T04:39:44.829Z,17.67
2018-06-10T04:42:13.351Z,14.53
2018-06-10T04:44:41.851Z,13.83
2018-06-10T04:47:10.365Z,14.70
2018-06-10T04:49:38.952Z,13.17
2018-06-10T04:52:07.523Z,12.70
2018-06-10T04:54:36.142Z,13.43
2018-06-10T04:57:04.641Z,13.83
2018-06-10T04:59:33.157Z,13.20
2018-06-10T05:02:01.684Z,13.60
2018-06-10T05:04:30.240Z,14.53
2018-06-10T05:06:58.747Z,11.40
2018-06-10T05:09:27.003Z,11.43
2018-06-10T05:11:55.708Z,11.50
2018-06-10T05:14:24.250Z,11.73
2018-06-10T05:16:52.745Z,12.57
2018-06-10T05:19:21.249Z,11.83
2018-06-10T05:21:49.727Z,18.27
2018-06-10T05:24:18.280Z,12.07
2018-06-10T05:26:46.773Z,12.00
2018-06-10T05:29:15.307Z,11.80
2018-06-10T05:31:43.794Z,12.30
2018-06-10T05:34:12.272Z,12.53
2018-06-10T05:36:40.812Z,12.47
2018-06-10T05:39:09.706Z,11.00
2018-06-10T05:41:38.248Z,10.37
2018-06-10T05:44:06.726Z,9.83
2018-06-10T05:46:35.232Z,8.87
2018-06-10T05:49:03.868Z,8.93
2018-06-10T05:51:32.886Z,10.73
2018-06-10T05:54:01.391Z,9.30
2018-06-10T05:56:29.902Z,9.40
2018-06-10T05:58:58.384Z,9.43
2018-06-10T06:01:26.887Z,10.30
2018-06-10T06:03:55.468Z,10.40
2018-06-10T06:06:23.979Z,10.03
2018-06-10T06:08:52.515Z,9.20
2018-06-10T06:11:21.226Z,10.57
2018-06-10T06:13:49.730Z,10.27
2018-06-10T06:16:18.313Z,9.83
2018-06-10T06:18:46.883Z,9.77
2018-06-10T06:21:15.452Z,9.07
2018-06-10T06:23:43.939Z,11.80
2018-06-10T06:26:12.099Z,10.43
2018-06-10T06:28:40.668Z,10.40
2018-06-10T06:31:09.195Z,9.17
2018-06-10T06:33:37.675Z,10.23
2018-06-10T06:36:06.267Z,9.93
2018-06-10T06:38:34.804Z,10.03
2018-06-10T06:41:03.329Z,9.77
2018-06-10T06:43:31.845Z,11.27
2018-06-10T06:46:00.437Z,11.13
2018-06-10T06:48:28.966Z,12.30
2018-06-10T06:50:57.570Z,12.63
2018-06-10T06:53:26.126Z,15.13
2018-06-10T06:55:54.799Z,18.20
2018-06-10T06:58:23.341Z,15.97
2018-06-10T07:00:51.859Z,14.47
2018-06-10T07:03:20.591Z,15.47
2018-06-10T07:05:49.199Z,13.97
2018-06-10T07:08:17.844Z,16.77
2018-06-10T07:10:46.399Z,20.73
2018-06-10T07:13:15.150Z,19.95
2018-06-10T07:15:43.931Z,19.57
2018-06-10T07:18:12.487Z,17.87
2018-06-10T07:20:41.187Z,18.52
2018-06-10T07:23:09.722Z,19.20
2018-06-10T07:25:38.471Z,19.03
2018-06-10T07:28:07.196Z,16.33
2018-06-10T07:30:35.808Z,15.63
2018-06-10T07:33:04.575Z,17.32
2018-06-10T07:35:33.147Z,15.93
2018-06-10T07:38:01.823Z,21.30
2018-06-10T07:40:30.380Z,20.97
2018-06-10T07:42:58.878Z,20.97
2018-06-10T07:45:27.404Z,17.03
2018-06-10T07:47:56.035Z,19.20
2018-06-10T07:50:24.775Z,19.93
2018-06-10T07:52:53.242Z,21.43
2018-06-10T07:55:21.462Z,21.67
2018-06-10T07:57:50.053Z,31.83
2018-06-10T08:00:18.852Z,28.73
2018-06-10T08:02:48.062Z,31.27
2018-06-10T08:05:21.186Z,46.37
2018-06-10T08:07:49.720Z,30.00
2018-06-10T08:10:18.263Z,31.93
2018-06-10T08:12:46.975Z,31.67
2018-06-10T08:15:15.504Z,32.47
2018-06-10T08:17:44.170Z,31.60
2018-06-10T08:20:13.627Z,38.23
2018-06-10T08:22:42.207Z,39.80
2018-06-10T08:25:10.930Z,32.33
2018-06-10T08:27:39.494Z,33.70
2018-06-10T08:30:08.134Z,39.23
2018-06-10T08:32:36.678Z,30.37
2018-06-10T08:35:05.250Z,28.60
2018-06-10T08:37:33.887Z,28.63
2018-06-10T08:40:02.414Z,31.13
2018-06-10T08:42:30.946Z,32.80
2018-06-10T08:44:59.463Z,33.47
2018-06-10T08:47:27.656Z,39.30
2018-06-10T08:49:56.192Z,34.10
2018-06-10T08:52:24.743Z,40.60
2018-06-10T08:54:53.280Z,38.07
2018-06-10T08:57:21.928Z,43.50
2018-06-10T08:59:50.471Z,37.33
2018-06-10T09:02:19.012Z,48.33
2018-06-10T09:04:47.745Z,38.63
2018-06-10T09:07:16.259Z,40.73
2018-06-10T09:09:44.807Z,37.87
2018-06-10T09:12:13.388Z,47.57
2018-06-10T09:14:42.170Z,42.57
2018-06-10T09:17:10.599Z,43.47
2018-06-10T09:19:39.135Z,42.30
2018-06-10T09:22:07.767Z,41.63
2018-06-10T09:24:36.240Z,42.03
2018-06-10T09:27:05.069Z,42.57
2018-06-10T09:29:33.607Z,36.80
2018-06-10T09:32:02.109Z,39.67
2018-06-10T09:34:30.655Z,38.80
2018-06-10T09:36:59.147Z,40.37
2018-06-10T09:39:27.794Z,40.73
2018-06-10T09:41:56.344Z,49.23
2018-06-10T09:44:24.954Z,42.43
2018-06-10T09:46:53.460Z,39.47
2018-06-10T09:49:21.971Z,38.87
2018-06-10T09:51:50.484Z,39.63
2018-06-10T09:54:19.040Z,41.73
2018-06-10T09:56:47.568Z,44.23
2018-06-10T09:59:16.237Z,46.47
2018-06-10T10:01:44.999Z,46.43
2018-06-10T10:04:13.497Z,46.97
2018-06-10T10:06:42.027Z,43.67
2018-06-10T10:09:10.747Z,41.30
2018-06-10T10:11:39.929Z,40.23
2018-06-10T10:14:08.592Z,45.80
2018-06-10T10:16:37.127Z,46.03
2018-06-10T10:19:05.681Z,43.40
2018-06-10T10:21:34.323Z,42.93
2018-06-10T10:24:02.988Z,42.67
2018-06-10T10:26:31.844Z,46.73
2018-06-10T10:29:00.399Z,45.03
2018-06-10T10:31:28.996Z,52.07
2018-06-10T10:33:57.540Z,51.15
2018-06-10T10:36:26.191Z,41.48
2018-06-10T10:38:54.743Z,48.10
2018-06-10T10:41:23.251Z,45.20
2018-06-10T10:43:51.825Z,39.50
2018-06-10T10:46:20.384Z,45.58
2018-06-10T10:48:48.952Z,46.00
2018-06-10T10:51:17.650Z,47.47
2018-06-10T10:53:46.166Z,47.50
2018-06-10T10:56:14.816Z,43.37
2018-06-10T10:58:43.391Z,46.23
2018-06-10T11:01:11.887Z,45.70
2018-06-10T11:03:40.589Z,41.60
2018-06-10T11:06:09.172Z,44.30
2018-06-10T11:08:37.758Z,43.77
2018-06-10T11:11:06.440Z,44.23
2018-06-10T11:13:35.009Z,49.13
2018-06-10T11:16:03.564Z,53.78
2018-06-10T11:18:32.084Z,44.93
2018-06-10T11:21:00.603Z,47.25
2018-06-10T11:23:29.544Z,44.13
2018-06-10T11:25:58.090Z,44.42
2018-06-10T11:28:26.636Z,46.98
2018-06-10T11:30:55.237Z,48.08
2018-06-10T11:33:23.850Z,47.45
2018-06-10T11:35:52.379Z,51.77
2018-06-10T11:38:20.951Z,48.27
2018-06-10T11:40:49.536Z,52.07
2018-06-10T11:43:18.060Z,51.40
2018-06-10T11:45:46.599Z,47.83
2018-06-10T11:48:15.183Z,51.80
2018-06-10T11:50:43.752Z,43.67
2018-06-10T11:53:12.352Z,50.50
2018-06-10T11:55:40.722Z,44.50
2018-06-10T11:58:09.301Z,52.27
2018-06-10T12:00:37.812Z,50.07
2018-06-10T12:03:06.431Z,48.43
2018-06-10T12:05:34.976Z,48.47
2018-06-10T12:08:03.744Z,53.33
2018-06-10T12:10:32.241Z,49.95
2018-06-10T12:13:00.896Z,50.80
2018-06-10T12:15:29.602Z,53.37
2018-06-10T12:17:58.096Z,49.03
2018-06-10T12:20:26.630Z,55.50
2018-06-10T12:22:55.243Z,57.10
2018-06-10T12:25:23.776Z,54.00
2018-06-10T12:27:52.295Z,52.93
2018-06-10T12:30:21.150Z,52.25
2018-06-10T12:32:49.681Z,59.03
2018-06-10T12:35:18.362Z,53.50
2018-06-10T12:37:46.888Z,60.63
2018-06-10T12:40:15.450Z,52.33
2018-06-10T12:42:43.738Z,57.43
2018-06-10T12:45:12.512Z,60.88
2018-06-10T12:47:41.162Z,51.10
2018-06-10T12:50:09.716Z,58.13
2018-06-10T12:52:38.250Z,54.17
2018-06-10T12:55:06.856Z,58.40
2018-06-10T12:57:35.435Z,56.20
2018-06-10T13:00:04.343Z,59.23
2018-06-10T13:02:32.957Z,57.10
2018-06-10T13:05:01.476Z,53.50
2018-06-10T13:07:30.083Z,57.43
2018-06-10T13:09:58.639Z,53.20
2018-06-10T13:12:27.167Z,52.43
2018-06-10T13:14:55.967Z,56.60
2018-06-10T13:17:24.559Z,56.53
2018-06-10T13:19:53.185Z,57.70
2018-06-10T13:22:21.772Z,53.13
2018-06-10T13:24:50.337Z,56.40
2018-06-10T13:27:18.984Z,51.70
2018-06-10T13:29:47.556Z,56.13
2018-06-10T13:32:16.154Z,56.58
2018-06-10T13:34:44.733Z,51.77
2018-06-10T13:37:13.286Z,52.53
2018-06-10T13:39:41.928Z,53.40
2018-06-10T13:42:10.498Z,55.00
2018-06-10T13:44:39.135Z,54.27
2018-06-10T13:47:07.674Z,52.27
2018-06-10T13:49:36.187Z,48.13
2018-06-10T13:52:04.732Z,52.30
2018-06-10T13:54:33.367Z,49.83
2018-06-10T13:57:02.128Z,48.33
2018-06-10T13:59:30.787Z,49.40
2018-06-10T14:01:59.371Z,44.73
2018-06-10T14:04:27.943Z,42.10
2018-06-10T14:06:56.654Z,39.93
2018-06-10T14:09:25.244Z,41.80
2018-06-10T14:11:53.778Z,38.58
2018-06-10T14:14:22.283Z,38.15
2018-06-10T14:16:50.796Z,35.63
2018-06-10T14:19:19.314Z,35.27
2018-06-10T14:21:47.974Z,38.53
2018-06-10T14:24:16.562Z,34.47
2018-06-10T14:26:45.197Z,33.03
2018-06-10T14:29:13.798Z,37.93
2018-06-10T14:31:42.343Z,35.33
2018-06-10T14:34:10.911Z,33.92
2018-06-10T14:36:39.471Z,31.97
2018-06-10T14:39:09.027Z,33.83
2018-06-10T14:41:37.827Z,32.93
2018-06-10T14:44:06.359Z,36.30
2018-06-10T14:46:34.888Z,34.37
2018-06-10T14:49:03.724Z,35.00
2018-06-10T14:51:32.388Z,29.30
2018-06-10T14:54:01.116Z,150.80
2018-06-10T14:56:29.838Z,31.17
2018-06-10T14:58:58.386Z,32.57
2018-06-10T15:01:27.074Z,31.73
2018-06-10T15:03:55.632Z,35.50
2018-06-10T15:06:24.210Z,27.07
2018-06-10T15:08:52.703Z,37.15
2018-06-10T15:11:21.642Z,30.07
2018-06-10T15:13:50.179Z,26.07
2018-06-10T15:16:18.755Z,23.70
2018-06-10T15:18:47.427Z,24.12
2018-06-10T15:21:15.984Z,24.32
2018-06-10T15:23:44.477Z,22.93
2018-06-10T15:26:13.165Z,24.80
2018-06-10T15:28:41.812Z,20.50
2018-06-10T15:31:10.344Z,22.07
2018-06-10T15:33:38.931Z,24.00
2018-06-10T15:36:07.572Z,22.03
2018-06-10T15:38:36.461Z,22.33
2018-06-10T15:41:05.120Z,22.40
2018-06-10T15:43:33.796Z,22.27
2018-06-10T15:46:02.789Z,19.77
2018-06-10T15:48:31.451Z,22.60
2018-06-10T15:51:00.005Z,18.17
2018-06-10T15:53:28.595Z,19.57
2018-06-10T15:55:58.704Z,19.40
2018-06-10T15:58:29.297Z,20.27
2018-06-10T16:00:57.876Z,20.10
2018-06-10T16:03:26.422Z,26.80
2018-06-10T16:05:54.972Z,23.87
2018-06-10T16:08:23.696Z,19.73
2018-06-10T16:10:52.278Z,20.43
2018-06-10T16:13:20.822Z,21.27
2018-06-10T16:15:49.524Z,22.97
2018-06-10T16:18:18.099Z,22.47
2018-06-10T16:20:46.652Z,21.30
2018-06-10T16:23:15.219Z,21.87
2018-06-10T16:25:43.748Z,21.33
2018-06-10T16:28:12.296Z,24.17
2018-06-10T16:30:40.863Z,21.03
2018-06-10T16:33:09.409Z,21.20
2018-06-10T16:35:37.920Z,20.60
2018-06-10T16:38:06.743Z,18.60
2018-06-10T16:40:35.443Z,19.57
2018-06-10T16:43:05.079Z,19.90
2018-06-10T16:45:33.632Z,17.57
2018-06-10T16:48:02.164Z,18.23
2018-06-10T16:50:30.739Z,18.63
2018-06-10T16:52:59.332Z,18.50
2018-06-10T16:55:27.849Z,18.47
2018-06-10T16:57:56.391Z,17.83
2018-06-10T17:00:24.916Z,16.90
2018-06-10T17:02:53.464Z,14.93
2018-06-10T17:05:21.984Z,16.40
2018-06-10T17:07:51.496Z,14.95
2018-06-10T17:10:20.037Z,15.80
2018-06-10T17:12:48.715Z,17.00
2018-06-10T17:15:17.351Z,19.00
2018-06-10T17:17:45.964Z,17.67
2018-06-10T17:20:14.461Z,18.23
2018-06-10T17:22:42.791Z,18.30
2018-06-10T17:25:11.303Z,20.10
2018-06-10T17:27:39.864Z,19.63
2018-06-10T17:30:08.484Z,17.43
2018-06-10T17:32:37.035Z,19.27
2018-06-10T17:35:05.987Z,18.60
2018-06-10T17:37:34.597Z,20.50
2018-06-10T17:40:03.596Z,21.20
2018-06-10T17:42:32.299Z,22.37
2018-06-10T17:45:00.892Z,21.87
2018-06-10T17:47:29.456Z,21.40
2018-06-10T17:49:58.018Z,20.83
2018-06-10T17:52:26.642Z,22.00
2018-06-10T17:54:55.143Z,20.53
2018-06-10T17:57:23.780Z,22.50
2018-06-10T17:59:52.427Z,20.97
2018-06-10T18:02:20.996Z,22.43
2018-06-10T18:04:49.565Z,20.57
2018-06-10T18:07:18.153Z,20.33
2018-06-10T18:09:46.848Z,19.17
2018-06-10T18:12:15.363Z,19.27
2018-06-10T18:14:44.005Z,18.30
2018-06-10T18:17:12.543Z,18.07
2018-06-10T18:19:41.354Z,19.17
2018-06-10T18:22:10.063Z,17.80
2018-06-10T18:24:38.780Z,17.17
2018-06-10T18:27:07.278Z,16.80
2018-06-10T18:29:35.959Z,18.93
2018-06-10T18:32:04.627Z,19.83
2018-06-10T18:34:33.188Z,21.70
2018-06-10T18:37:01.720Z,19.87
2018-06-10T18:39:30.380Z,18.10
2018-06-10T18:41:58.887Z,17.93
2018-06-10T18:44:27.447Z,17.20
2018-06-10T18:46:56.100Z,16.27
2018-06-10T18:49:24.765Z,17.50
2018-06-10T18:51:53.426Z,16.40
2018-06-10T18:54:22.065Z,15.43
2018-06-10T18:56:50.630Z,16.20
2018-06-10T18:59:19.160Z,16.93
2018-06-10T19:01:47.685Z,20.67
2018-06-10T19:04:16.296Z,19.93
2018-06-10T19:06:44.923Z,22.70
2018-06-10T19:09:13.446Z,21.57
2018-06-10T19:11:41.981Z,18.33
2018-06-10T19:14:10.554Z,17.40
2018-06-10T19:16:39.121Z,16.57
2018-06-10T19:19:07.659Z,16.67
2018-06-10T19:21:36.906Z,18.63
2018-06-10T19:24:05.530Z,16.63
2018-06-10T19:26:34.171Z,16.57
2018-06-10T19:29:02.826Z,17.33
2018-06-10T19:31:31.638Z,18.00
2018-06-10T19:34:00.436Z,16.57
2018-06-10T19:36:28.935Z,17.13
2018-06-10T19:38:57.526Z,18.30
2018-06-10T19:41:26.391Z,18.63
2018-06-10T19:43:55.101Z,16.33
2018-06-10T19:46:23.579Z,17.33
2018-06-10T19:48:52.135Z,16.53
2018-06-10T19:51:20.691Z,16.03
2018-06-10T19:53:49.308Z,17.43
2018-06-10T19:56:18.933Z,19.30
2018-06-10T19:58:47.646Z,19.43
2018-06-10T20:01:17.555Z,20.60
2018-06-10T20:03:46.234Z,17.73
2018-06-10T20:06:14.815Z,20.40
2018-06-10T20:08:43.371Z,18.03
2018-06-10T20:11:11.985Z,20.67
2018-06-10T20:13:41.764Z,19.00
2018-06-10T20:16:10.379Z,19.30
2018-06-10T20:18:38.956Z,20.83
2018-06-10T20:21:07.857Z,19.37
2018-06-10T20:23:36.383Z,20.13
2018-06-10T20:26:05.018Z,18.83
2018-06-10T20:28:33.881Z,19.17
2018-06-10T20:31:03.058Z,18.47
2018-06-10T20:33:32.244Z,19.57
2018-06-10T20:36:00.896Z,19.43
2018-06-10T20:38:29.523Z,21.13
2018-06-10T20:40:58.152Z,18.70
2018-06-10T20:43:26.976Z,17.83
2018-06-10T20:45:55.550Z,19.57
2018-06-10T20:48:24.262Z,19.70
2018-06-10T20:50:52.757Z,18.37
2018-06-10T20:53:21.303Z,19.07
2018-06-10T20:55:49.848Z,19.23
2018-06-10T20:58:18.323Z,19.13
2018-06-10T21:00:46.843Z,17.10
2018-06-10T21:03:15.474Z,18.13
2018-06-10T21:05:44.024Z,18.83
2018-06-10T21:08:12.660Z,20.23
2018-06-10T21:10:41.288Z,19.80
2018-06-10T21:13:09.817Z,20.80
2018-06-10T21:15:38.403Z,20.83
2018-06-10T21:18:06.931Z,20.50
2018-06-10T21:20:35.720Z,21.73
2018-06-10T21:23:04.252Z,23.67
2018-06-10T21:25:32.795Z,26.17
2018-06-10T21:28:01.329Z,23.80
2018-06-10T21:30:29.849Z,24.87
2018-06-10T21:32:58.436Z,23.70
2018-06-10T21:35:27.060Z,23.20
2018-06-10T21:37:55.589Z,19.83
2018-06-10T21:40:24.219Z,19.50
2018-06-10T21:42:52.734Z,18.63
2018-06-10T21:45:21.269Z,19.37
2018-06-10T21:47:50.594Z,19.50
2018-06-10T21:50:19.219Z,20.73
2018-06-10T21:52:47.888Z,20.43
2018-06-10T21:55:16.486Z,19.80
2018-06-10T21:57:45.152Z,21.37
2018-06-10T22:00:25.169Z,22.10
2018-06-10T22:02:54.274Z,24.77
2018-06-10T22:05:22.985Z,26.97
2018-06-10T22:07:51.519Z,27.73
2018-06-10T22:10:20.019Z,29.27
2018-06-10T22:12:48.571Z,29.00
2018-06-10T22:15:17.319Z,28.93
2018-06-10T22:17:46.070Z,25.27
2018-06-10T22:20:14.580Z,25.20
2018-06-10T22:22:43.151Z,22.57
2018-06-10T22:25:11.826Z,22.07
2018-06-10T22:27:40.557Z,22.37
2018-06-10T22:30:09.400Z,29.90
2018-06-10T22:32:38.574Z,28.43
2018-06-10T22:35:07.126Z,23.53
2018-06-10T22:37:35.725Z,19.40
2018-06-10T22:40:04.301Z,20.57
2018-06-10T22:42:32.828Z,21.03
2018-06-10T22:45:01.363Z,20.43
2018-06-10T22:47:29.542Z,20.37
2018-06-10T22:49:58.156Z,21.63
2018-06-10T22:52:26.759Z,21.77
2018-06-10T22:54:55.614Z,20.73
2018-06-10T22:57:24.370Z,21.30
2018-06-10T22:59:52.880Z,21.80
2018-06-10T23:02:21.901Z,18.30
2018-06-10T23:04:50.453Z,20.57
2018-06-10T23:07:18.965Z,22.20
2018-06-10T23:09:47.598Z,20.20
2018-06-10T23:12:16.310Z,19.33
2018-06-10T23:14:44.790Z,22.43
2018-06-10T23:17:13.451Z,25.50
2018-06-10T23:19:41.983Z,25.10
2018-06-10T23:22:10.559Z,22.50
2018-06-10T23:24:39.357Z,19.07
2018-06-10T23:27:07.938Z,20.70
2018-06-10T23:29:36.427Z,19.57
2018-06-10T23:32:05.235Z,19.00
2018-06-10T23:34:33.793Z,18.30
2018-06-10T23:37:02.309Z,22.57
2018-06-10T23:39:30.812Z,22.07
2018-06-10T23:41:59.390Z,23.03
2018-06-10T23:44:27.952Z,25.07
2018-06-10T23:46:56.619Z,23.27
2018-06-10T23:49:25.163Z,22.33
2018-06-10T23:51:53.903Z,22.63
2018-06-10T23:54:22.463Z,23.03
2018-06-10T23:56:51.031Z,24.53
2018-06-10T23:59:19.564Z,25.23
